Flight Track Log - Related Links

Times and Time Zones

All times are in EDT time to prevent confusion due to time zone crossing. See the UAL284 flight status page for this flight to view local times or setup timezone preferences in your user account.

Time Position Orientation Groundspeed Altitude Reporting Facility
EDT Latitude Longitude Course Direction KTS MPH feet Rate Location/Type
Thu 08:13:32 PM 33.7068 -117.9174 159° South  Level FlightAware Approximate
Thu 08:14:32 PM 33.7653 -118.0095 141° Southeast  Level FlightAware Approximate
Thu 08:14:38 PM 33.6333 -117.8833 209° Southwest 139 160 2,300  Level Southern California TRACON
Thu 08:19:55 PM 33.3056 -118.0969 283° West 291 335 15,300 2,467 Climbing Los Angeles Center
Thu 08:20:55 PM 33.3269 -118.2044 304° West 258 297 17,800 2,550 Climbing Los Angeles Center
Thu 08:21:55 PM 33.3817 -118.3003 315° West 273 314 20,400 2,350 Climbing Los Angeles Center
Thu 08:22:55 PM 33.4531 -118.3867 314° West 324 373 22,500 2,050 Climbing Los Angeles Center
Thu 08:23:55 PM 33.5244 -118.4758 312° West 355 409 24,500 1,650 Climbing Los Angeles Center
Thu 08:24:55 PM 33.5875 -118.5597 312° West 368 423 25,800 1,500 Climbing Los Angeles Center
Thu 08:25:55 PM 33.6625 -118.6594 314° West 379 436 27,500 2,000 Climbing Los Angeles Center
Thu 08:26:55 PM 33.7378 -118.7539 312° West 390 449 29,800 1,250 Climbing Los Angeles Center
Thu 08:27:55 PM 33.8108 -118.8514 313° West 390 449 30,000 500 Climbing Los Angeles Center
Thu 08:28:55 PM 33.8839 -118.9461 312° West 390 449 30,800 1,200 Climbing Los Angeles Center
Thu 08:29:55 PM 33.9628 -119.0514 312° West 390 449 32,400 1,300 Climbing Los Angeles Center
Thu 08:30:55 PM 34.0356 -119.1492 313° West 396 456 33,400 1,150 Climbing Los Angeles Center
Thu 08:31:55 PM 34.1103 -119.2447 312° West 396 456 34,700 1,650 Climbing Los Angeles Center
Thu 08:32:55 PM 34.1828 -119.3428 312° West 391 450 36,700 1,400 Climbing Los Angeles Center
Thu 08:33:55 PM 34.2533 -119.4386 309° West 391 450 37,500 650 Climbing Los Angeles Center
Thu 08:34:55 PM 34.3133 -119.5289 314° West 391 450 38,000 250 Climbing Los Angeles Center
Thu 08:35:55 PM 34.3900 -119.6253 312° West 386 444 38,000  Level Los Angeles Center
Thu 08:36:55 PM 34.4664 -119.7267 315° West 399 459 38,000  Level Los Angeles Center
Thu 08:37:55 PM 34.5450 -119.8208 320° Northwest 399 459 38,000  Level Los Angeles Center
Thu 08:38:55 PM 34.6419 -119.9186 319° Northwest 406 467 38,000  Level Los Angeles Center
Thu 08:39:55 PM 34.7269 -120.0083 317° Northwest 411 473 38,000  Level Los Angeles Center
Thu 08:40:55 PM 34.7933 -120.0847 320° Northwest 411 473 38,000 -50 Level Los Angeles Center
Thu 08:41:55 PM 34.8881 -120.1831 317° Northwest 411 473 37,900 -50 Descending Los Angeles Center
Thu 08:42:55 PM 34.9706 -120.2758 318° Northwest 406 467 37,900  Level Los Angeles Center
Thu 08:43:55 PM 35.0550 -120.3689 318° Northwest 401 461 37,900  Level Los Angeles Center
Thu 08:44:55 PM 35.1375 -120.4594 317° Northwest 406 467 37,900 38 Level Los Angeles Center
Thu 08:46:35 PM 35.2822 -120.6278 320° Northwest 395 455 38,000 38 Climbing Oakland Center
Thu 08:47:34 PM 35.3700 -120.7189 324° Northwest 401 461 38,000 -50 Level Oakland Center
Thu 08:48:34 PM 35.4619 -120.8003 324° Northwest 412 474 37,900 -50 Descending Oakland Center
Thu 08:49:34 PM 35.5539 -120.8817 324° Northwest 412 474 37,900 50 Level Oakland Center
Thu 08:50:35 PM 35.6497 -120.9658 324° Northwest 412 474 38,000 -50 Climbing Oakland Center
Thu 08:51:34 PM 35.7436 -121.0503 323° Northwest 417 480 37,800 -850 Descending Oakland Center
Thu 08:52:35 PM 35.8333 -121.1325 324° Northwest 417 480 36,300 -1,835 Descending Oakland Center
Thu 08:53:35 PM 35.9250 -121.2147 324° Northwest 412 474 34,100 -2,168 Descending Oakland Center
Thu 08:54:34 PM 36.0206 -121.2997 324° Northwest 417 480 32,000 -2,050 Descending Oakland Center
Thu 08:55:35 PM 36.1122 -121.3822 323° Northwest 417 480 30,000 -2,000 Descending Oakland Center
Thu 08:56:34 PM 36.2056 -121.4703 324° Northwest 417 480 28,000 -2,000 Descending Oakland Center
Thu 08:57:35 PM 36.3011 -121.5558 323° Northwest 417 480 26,000 -2,000 Descending Oakland Center
Thu 08:58:34 PM 36.3906 -121.6392 323° Northwest 417 480 24,000 -1,934 Descending Oakland Center
Thu 08:59:36 PM 36.4797 -121.7225 326° Northwest 412 474 22,100 -1,835 Descending Oakland Center
Thu 09:00:35 PM 36.5689 -121.7983 320° Northwest 401 461 20,300 -1,714 Descending Oakland Center
Thu 09:01:35 PM 36.6475 -121.8819 332° Northwest 389 448 18,700 -1,677 Descending Oakland Center
Thu 09:02:08 PM 36.7000 -121.9167 332° Northwest 405 466 17,700 -1,935 Descending Northern Cal TRACON
Thu 09:03:08 PM 36.8000 -121.9833 352° North 376 433 15,700 -2,050 Descending Northern Cal TRACON
Thu 09:04:08 PM 36.9000 -122.0000 342° North 365 420 13,600 -2,083 Descending Northern Cal TRACON
Thu 09:05:09 PM 36.9833 -122.0333 352° North 345 397 11,500 -1,785 Descending Northern Cal TRACON
Thu 09:06:09 PM 37.0833 -122.0500 332° Northwest 302 348 10,000 -750 Descending Northern Cal TRACON
Thu 09:07:09 PM 37.1333 -122.0833 284° West 229 264 10,000  Level Northern Cal TRACON
Thu 09:08:09 PM 37.1500 -122.1667 287° West 226 260 10,000 -550 Level Northern Cal TRACON
Thu 09:09:09 PM 37.1667 -122.2333 270° West 221 254 8,900 -1,000 Descending Northern Cal TRACON
Thu 09:10:09 PM 37.1667 -122.3000 302° West 217 250 8,000 -450 Descending Northern Cal TRACON
Thu 09:11:09 PM 37.2000 -122.3667 332° Northwest 217 250 8,000 -300 Level Northern Cal TRACON
Thu 09:12:09 PM 37.2500 -122.4000 345° North 208 239 7,400 -887 Descending Northern Cal TRACON
Thu 09:13:04 PM 37.3000 -122.4167 38° Northeast 222 255 6,300 -730 Descending Northern Cal TRACON
Thu 09:14:04 PM 37.3500 -122.3667 31° Northeast 229 264 6,000 -143 Descending Northern Cal TRACON
Thu 09:15:10 PM 37.4167 -122.3167 90° East 230 265 6,000 -190 Level Northern Cal TRACON
Thu 09:16:10 PM 37.4167 -122.2333 90° East 251 289 5,600 -579 Descending Northern Cal TRACON
Thu 09:17:04 PM 37.4167 -122.1667 73° East 234 269 4,900 -789 Descending Northern Cal TRACON
Thu 09:18:04 PM 37.4333 -122.1000 360° North 187 215 4,100 -450 Descending Northern Cal TRACON
Thu 09:19:04 PM 37.4833 -122.1000 360° North 154 177 4,000 -100 Descending Northern Cal TRACON

Login

Don't have an account? Register now (free) for customized features, flight alerts, and more!